Time;durP1;ratioP1;P1;durP2;ratioP2;P2;SDS_P1;SDS_P2;PMS_P1;PMS_P2;Temp;Humidity;BMP_temperature;BMP_pressure;BME280_temperature;BME280_humidity;BME280_pressure;Samples;Min_cycle;Max_cycle;Signal;HPM_P1;HPM_P2
2021/09/03 00:00:04;;;;;;;;;;;22.60;78.60;22.80;99796.00;;;;340456;28;83500;-93
2021/09/03 00:00:17;;;;;;;;;;;22.60;78.50;22.70;99806.00;;;;338465;28;96512;-94
2021/09/03 00:00:29;;;;;;;;;;;22.60;78.60;22.70;99797.00;;;;340532;28;83393;-94
2021/09/03 00:00:41;;;;;;;;;;;22.60;78.80;22.60;99808.00;;;;338434;28;96543;-93
2021/09/03 00:00:53;;;;;;;;;;;22.60;78.90;22.60;99798.00;;;;340586;28;82844;-94
2021/09/03 00:01:05;;;;;;;;;;;22.60;78.80;22.50;99803.00;;;;339802;28;96836;-93
2021/09/03 00:01:17;;;;;;;;;;;22.60;78.70;22.60;99803.00;;;;340608;28;83365;-93
2021/09/03 00:01:29;;;;;;;;;;;22.60;78.90;22.60;99806.00;;;;338352;28;97108;-93
2021/09/03 00:01:41;;;;;;;;;;;22.60;79.00;22.60;99801.00;;;;340498;28;83428;-93
2021/09/03 00:01:53;;;;;;;;;;;22.60;79.00;22.60;99803.00;;;;339768;28;97758;-93
2021/09/03 00:02:05;;;;;;;;;;;22.60;79.00;22.60;99804.00;;;;340513;28;82329;-93
2021/09/03 00:02:17;;;;;;;;;;;22.60;79.00;22.60;99805.00;;;;345482;28;96508;-94
2021/09/03 00:02:29;;;;;;;;;;;22.60;78.90;22.60;99801.00;;;;339194;28;83467;-93
2021/09/03 00:02:41;;;;;;;;;;;22.60;78.90;22.70;99801.00;;;;337173;28;93465;-93
2021/09/03 00:02:53;;;;;;;;;;;22.60;78.70;22.60;99808.00;;;;344764;28;82516;-93
2021/09/03 00:03:05;;;;;;;;;;;22.60;78.60;22.60;99799.00;;;;343967;28;95770;-93
2021/09/03 00:03:17;;;;;;;;;;;22.60;78.90;22.60;99797.00;;;;340616;28;82456;-93
2021/09/03 00:03:30;;;;;;;;;;;22.60;78.60;22.60;99804.00;;;;339707;28;96425;-94
2021/09/03 00:03:42;;;;;;;;;;;22.60;78.90;22.60;99801.00;;;;339261;28;83352;-93
2021/09/03 00:03:53;;;;;;;;;;;22.60;79.00;22.60;99807.00;;;;339840;28;94291;-93
2021/09/03 00:04:05;;;;;;;;;;;22.60;78.80;22.60;99798.00;;;;344671;28;82521;-94
2021/09/03 00:04:17;;;;;;;;;;;22.60;78.70;22.70;99800.00;;;;344059;28;95960;-93
2021/09/03 00:04:29;;;;;;;;;;;22.60;78.60;22.70;99790.00;;;;339260;28;82355;-93
2021/09/03 00:04:41;;;;;;;;;;;22.60;78.60;22.70;99803.00;;;;338448;28;95032;-93
2021/09/03 00:04:52;;;;;;;;;;;22.60;78.60;22.80;99802.00;;;;339179;28;83427;-93
2021/09/03 00:05:06;;;;;;;;;;;22.60;78.70;22.70;99798.00;;;;339536;28;96924;-93
2021/09/03 00:05:19;;;;;;;;;;;22.60;78.90;22.70;99804.00;;;;340512;28;83435;-94
2021/09/03 00:05:31;;;;;;;;;;;22.60;79.20;22.70;99801.00;;;;338384;28;95217;-93
2021/09/03 00:05:43;;;;;;;;;;;22.60;78.90;22.70;99804.00;;;;341383;28;82660;-93
2021/09/03 00:05:55;;;;;;;;;;;22.60;78.70;22.80;99799.00;;;;339818;28;95373;-93
2021/09/03 00:06:06;;;;;;;;;;;22.60;78.70;22.70;99796.00;;;;337813;28;83499;-94
2021/09/03 00:06:18;;;;;;;;;;;22.60;79.00;22.50;99801.00;;;;345395;28;96512;-93
2021/09/03 00:06:30;;;;;;;;;;;22.60;79.00;22.50;99805.00;;;;347617;28;82477;-93
2021/09/03 00:06:42;;;;;;;;;;;22.60;79.00;22.40;99808.00;;;;341222;28;93129;-93
2021/09/03 00:06:54;;;;;;;;;;;22.60;79.20;22.40;99809.00;;;;340495;28;83482;-93
2021/09/03 00:07:05;;;;;;;;;;;22.60;79.10;22.60;99808.00;;;;339854;28;94207;-93
2021/09/03 00:07:17;;;;;;;;;;;22.60;79.00;22.50;99808.00;;;;339262;28;83406;-94
2021/09/03 00:07:29;;;;;;;;;;;22.60;79.30;22.40;99807.00;;;;339670;28;96230;-92
2021/09/03 00:07:41;;;;;;;;;;;22.60;79.30;22.50;99817.00;;;;339163;28;83434;-93
2021/09/03 00:07:53;;;;;;;;;;;22.60;79.20;22.60;99810.00;;;;337143;28;97059;-94
2021/09/03 00:08:05;;;;;;;;;;;22.60;79.00;22.60;99805.00;;;;341763;28;83468;-93
2021/09/03 00:08:17;;;;;;;;;;;22.60;79.00;22.60;99809.00;;;;338503;28;96450;-94
2021/09/03 00:08:29;;;;;;;;;;;22.50;79.00;22.60;99806.00;;;;340356;28;83437;-93
2021/09/03 00:08:40;;;;;;;;;;;22.50;78.90;22.70;99795.00;;;;339706;28;93195;-92
2021/09/03 00:08:52;;;;;;;;;;;22.60;78.80;22.60;99805.00;;;;340498;28;82570;-93
2021/09/03 00:09:04;;;;;;;;;;;22.60;78.90;22.60;99805.00;;;;339660;28;97445;-92
2021/09/03 00:09:16;;;;;;;;;;;22.50;78.90;22.70;99808.00;;;;337910;28;82464;-94
2021/09/03 00:09:27;;;;;;;;;;;22.50;78.70;22.70;99806.00;;;;337033;28;97478;-94
2021/09/03 00:09:39;;;;;;;;;;;22.60;78.70;22.70;99806.00;;;;341794;28;83445;-92
2021/09/03 00:09:51;;;;;;;;;;;22.50;78.90;22.60;99805.00;;;;338474;28;95254;-93
2021/09/03 00:10:06;;;;;;;;;;;22.50;79.10;22.80;99804.00;;;;339041;28;83426;-94
2021/09/03 00:10:18;;;;;;;;;;;22.60;78.90;22.70;99811.00;;;;338445;28;95562;-92
2021/09/03 00:10:30;;;;;;;;;;;22.60;78.70;22.70;99808.00;;;;339187;28;83434;-94
2021/09/03 00:10:42;;;;;;;;;;;22.50;78.50;22.70;99806.00;;;;339622;28;94623;-92
2021/09/03 00:10:54;;;;;;;;;;;22.50;78.70;22.70;99800.00;;;;339176;28;83507;-93
2021/09/03 00:11:06;;;;;;;;;;;22.60;78.90;22.80;99802.00;;;;341149;28;94358;-93
2021/09/03 00:11:17;;;;;;;;;;;22.60;78.90;22.70;99810.00;;;;339282;28;83371;-93
2021/09/03 00:11:29;;;;;;;;;;;22.60;79.00;22.60;99808.00;;;;338387;28;96082;-94
2021/09/03 00:11:41;;;;;;;;;;;22.60;79.00;22.50;99812.00;;;;340579;28;82582;-93
2021/09/03 00:11:53;;;;;;;;;;;22.60;79.20;22.50;99812.00;;;;338375;28;97427;-93
2021/09/03 00:12:05;;;;;;;;;;;22.50;79.00;22.40;99809.00;;;;337824;28;82521;-93
2021/09/03 00:12:17;;;;;;;;;;;22.50;79.30;22.50;99808.00;;;;338493;28;94341;-93
2021/09/03 00:12:29;;;;;;;;;;;22.50;79.10;22.50;99813.00;;;;340685;28;82393;-93
2021/09/03 00:12:41;;;;;;;;;;;22.50;79.10;22.40;99812.00;;;;346824;28;95964;-93
2021/09/03 00:12:53;;;;;;;;;;;22.50;79.20;22.40;99811.00;;;;346042;28;83892;-94
2021/09/03 00:13:04;;;;;;;;;;;22.50;79.40;22.40;99804.00;;;;339744;28;97455;-92
2021/09/03 00:13:16;;;;;;;;;;;22.50;79.20;22.60;99809.00;;;;340572;28;82477;-94
2021/09/03 00:13:28;;;;;;;;;;;22.50;79.00;22.60;99804.00;;;;338130;28;96722;-93
2021/09/03 00:13:40;;;;;;;;;;;22.50;79.00;22.70;99809.00;;;;340535;28;83327;-93
2021/09/03 00:13:52;;;;;;;;;;;22.50;79.20;22.70;99804.00;;;;346741;28;96768;-93
2021/09/03 00:14:03;;;;;;;;;;;22.50;79.30;22.70;99805.00;;;;346093;28;83401;-92
2021/09/03 00:14:15;;;;;;;;;;;22.50;79.30;22.60;99801.00;;;;338428;28;96172;-93
2021/09/03 00:14:27;;;;;;;;;;;22.50;79.00;22.60;99805.00;;;;340639;28;83252;-94
2021/09/03 00:14:39;;;;;;;;;;;22.50;79.20;22.70;99805.00;;;;339940;28;94205;-92
2021/09/03 00:14:51;;;;;;;;;;;22.50;79.10;22.50;99808.00;;;;340509;28;83374;-93
2021/09/03 00:15:07;;;;;;;;;;;22.50;79.30;22.50;99797.00;;;;338486;28;97187;-93
2021/09/03 00:15:19;;;;;;;;;;;22.50;79.40;22.40;99807.00;;;;339244;28;83356;-93
2021/09/03 00:15:31;;;;;;;;;;;22.50;79.50;22.40;99805.00;;;;341075;28;96483;-93
2021/09/03 00:15:43;;;;;;;;;;;22.50;79.40;22.40;99803.00;;;;340598;28;82249;-93
2021/09/03 00:15:54;;;;;;;;;;;22.50;79.40;22.30;99802.00;;;;338395;28;97212;-93
2021/09/03 00:16:06;;;;;;;;;;;22.50;79.40;22.40;99800.00;;;;347529;28;82285;-93
2021/09/03 00:16:18;;;;;;;;;;;22.40;79.50;22.40;99801.00;;;;346812;28;96910;-94
2021/09/03 00:16:30;;;;;;;;;;;22.40;79.50;22.40;99803.00;;;;337860;28;83497;-92
2021/09/03 00:16:42;;;;;;;;;;;22.50;79.20;22.40;99804.00;;;;338392;28;95986;-92
2021/09/03 00:16:54;;;;;;;;;;;22.40;79.50;22.50;99807.00;;;;337586;28;83410;-94
2021/09/03 00:17:05;;;;;;;;;;;22.40;80.10;22.50;99796.00;;;;338464;28;96404;-93
2021/09/03 00:17:17;;;;;;;;;;;22.40;79.70;22.50;99798.00;;;;340560;28;83509;-93
2021/09/03 00:17:29;;;;;;;;;;;22.40;79.40;22.50;99805.00;;;;339667;28;95342;-94
2021/09/03 00:17:41;;;;;;;;;;;22.40;79.30;22.40;99800.00;;;;338934;28;83609;-93
2021/09/03 00:17:53;;;;;;;;;;;22.50;79.50;22.40;99802.00;;;;339790;28;95752;-93
2021/09/03 00:18:05;;;;;;;;;;;22.40;79.40;22.50;99805.00;;;;339221;28;83355;-93
2021/09/03 00:18:17;;;;;;;;;;;22.40;79.30;22.50;99801.00;;;;337117;28;96743;-93
2021/09/03 00:18:29;;;;;;;;;;;22.50;79.30;22.60;99801.00;;;;346186;28;83485;-93
2021/09/03 00:18:41;;;;;;;;;;;22.50;79.40;22.60;99803.00;;;;338535;28;95262;-93
2021/09/03 00:18:52;;;;;;;;;;;22.40;79.50;22.70;99802.00;;;;341833;28;83426;-93
2021/09/03 00:19:05;;;;;;;;;;;22.40;79.50;22.70;99810.00;;;;339823;28;94469;-94
2021/09/03 00:19:17;;;;;;;;;;;22.40;79.30;22.60;99801.00;;;;347595;28;83454;-93
2021/09/03 00:19:29;;;;;;;;;;;22.40;79.30;22.60;99807.00;;;;344066;28;96326;-94
2021/09/03 00:19:41;;;;;;;;;;;22.40;79.40;22.60;99809.00;;;;340699;28;83246;-94
2021/09/03 00:19:53;;;;;;;;;;;22.40;79.20;22.60;99807.00;;;;341123;28;95981;-94
2021/09/03 00:20:06;;;;;;;;;;;22.40;79.30;22.60;99809.00;;;;341780;28;83396;-93
2021/09/03 00:20:18;;;;;;;;;;;22.40;79.40;22.50;99806.00;;;;337190;28;96424;-93
2021/09/03 00:20:30;;;;;;;;;;;22.40;79.30;22.50;99810.00;;;;340571;28;83423;-94
2021/09/03 00:20:41;;;;;;;;;;;22.40;79.40;22.40;99808.00;;;;338187;28;96205;-92
2021/09/03 00:20:53;;;;;;;;;;;22.40;79.30;22.40;99807.00;;;;346054;28;82529;-93
2021/09/03 00:21:05;;;;;;;;;;;22.40;79.40;22.40;99805.00;;;;347099;27;96743;-93
2021/09/03 00:21:17;;;;;;;;;;;22.40;79.50;22.40;99805.00;;;;340528;28;83489;-94
2021/09/03 00:21:28;;;;;;;;;;;22.40;79.30;22.40;99812.00;;;;345470;28;93266;-94
2021/09/03 00:21:40;;;;;;;;;;;22.40;79.70;22.40;99799.00;;;;346188;28;83390;-93
2021/09/03 00:21:55;;;;;;;;;;;22.40;79.90;22.40;99806.00;;;;344017;28;96932;-93
2021/09/03 00:22:07;;;;;;;;;;;22.40;80.00;22.50;99807.00;;;;347493;28;83508;-93
2021/09/03 00:22:20;;;;;;;;;;;22.40;79.40;22.50;99807.00;;;;339684;28;96774;-94
2021/09/03 00:22:31;;;;;;;;;;;22.40;79.30;22.40;99804.00;;;;336496;28;83485;-91
2021/09/03 00:22:43;;;;;;;;;;;22.40;79.70;22.30;99797.00;;;;339824;28;95681;-93
2021/09/03 00:22:55;;;;;;;;;;;22.40;79.90;22.40;99808.00;;;;345971;28;82586;-92
2021/09/03 00:23:07;;;;;;;;;;;22.40;79.80;22.40;99805.00;;;;342696;28;96435;-93
2021/09/03 00:23:19;;;;;;;;;;;22.40;79.50;22.50;99802.00;;;;344760;28;82550;-93
2021/09/03 00:23:30;;;;;;;;;;;22.40;79.40;22.50;99806.00;;;;343987;28;96408;-94
2021/09/03 00:23:42;;;;;;;;;;;22.40;79.40;22.50;99808.00;;;;339811;28;83544;-94
2021/09/03 00:23:54;;;;;;;;;;;22.40;79.70;22.50;99807.00;;;;342466;28;96405;-94
2021/09/03 00:24:06;;;;;;;;;;;22.40;79.80;22.40;99808.00;;;;339039;28;84184;-93
2021/09/03 00:24:17;;;;;;;;;;;22.40;79.60;22.40;99803.00;;;;345335;28;96633;-93
2021/09/03 00:24:29;;;;;;;;;;;22.40;79.70;22.40;99796.00;;;;346096;28;83370;-92
2021/09/03 00:24:41;;;;;;;;;;;22.40;79.70;22.40;99808.00;;;;338319;28;94584;-93
2021/09/03 00:24:53;;;;;;;;;;;22.40;79.90;22.40;99811.00;;;;339141;28;83491;-94
2021/09/03 00:25:06;;;;;;;;;;;22.40;79.80;22.40;99803.00;;;;343902;28;96992;-90
2021/09/03 00:25:18;;;;;;;;;;;22.30;79.40;22.40;99809.00;;;;340536;28;82528;-93
2021/09/03 00:25:30;;;;;;;;;;;22.30;79.40;22.40;99805.00;;;;346780;28;96068;-93
2021/09/03 00:25:42;;;;;;;;;;;22.30;79.40;22.40;99803.00;;;;348960;27;83345;-93
2021/09/03 00:25:54;;;;;;;;;;;22.30;79.30;22.40;99803.00;;;;339800;28;96458;-94
2021/09/03 00:26:06;;;;;;;;;;;22.40;79.30;22.40;99802.00;;;;341857;28;83418;-94
2021/09/03 00:26:17;;;;;;;;;;;22.30;79.30;22.50;99800.00;;;;341044;28;97276;-92
2021/09/03 00:26:29;;;;;;;;;;;22.30;79.20;22.50;99800.00;;;;343325;28;82475;-93
2021/09/03 00:26:41;;;;;;;;;;;22.40;79.20;22.40;99810.00;;;;338551;28;95710;-92
2021/09/03 00:26:53;;;;;;;;;;;22.30;79.20;22.40;99797.00;;;;339104;28;83447;-94
2021/09/03 00:27:04;;;;;;;;;;;22.30;79.20;22.40;99807.00;;;;338443;28;96566;-94
2021/09/03 00:27:16;;;;;;;;;;;22.30;79.40;22.50;99806.00;;;;337798;28;83358;-93
2021/09/03 00:27:28;;;;;;;;;;;22.30;79.30;22.50;99810.00;;;;339678;28;95576;-93
2021/09/03 00:27:40;;;;;;;;;;;22.30;79.30;22.40;99804.00;;;;340564;28;83324;-93
2021/09/03 00:27:52;;;;;;;;;;;22.40;79.80;22.50;99806.00;;;;339755;28;96400;-93
2021/09/03 00:28:04;;;;;;;;;;;22.30;79.40;22.40;99805.00;;;;339090;28;83447;-93
2021/09/03 00:28:15;;;;;;;;;;;22.30;79.80;22.30;99804.00;;;;339628;28;95192;-93
2021/09/03 00:28:27;;;;;;;;;;;22.30;79.80;22.30;99801.00;;;;339255;28;82479;-93
2021/09/03 00:28:39;;;;;;;;;;;22.30;79.70;22.30;99803.00;;;;339829;28;94855;-94
2021/09/03 00:28:51;;;;;;;;;;;22.30;79.60;22.30;99808.00;;;;340515;28;83435;-93
2021/09/03 00:29:03;;;;;;;;;;;22.30;79.90;22.40;99798.00;;;;337125;28;95273;-93
2021/09/03 00:29:15;;;;;;;;;;;22.30;79.60;22.50;99808.00;;;;341921;28;83252;-92
2021/09/03 00:29:27;;;;;;;;;;;22.30;79.50;22.50;99807.00;;;;339762;28;94418;-93
2021/09/03 00:29:39;;;;;;;;;;;22.30;79.40;22.50;99807.00;;;;338590;28;83695;-93
2021/09/03 00:29:51;;;;;;;;;;;22.30;79.50;22.50;99805.00;;;;338538;28;92730;-93
2021/09/03 00:30:04;;;;;;;;;;;22.30;79.50;22.40;99805.00;;;;340299;28;82525;-92
2021/09/03 00:30:16;;;;;;;;;;;22.30;79.50;22.40;99804.00;;;;339818;28;95272;-93
2021/09/03 00:30:28;;;;;;;;;;;22.40;79.70;22.40;99808.00;;;;340566;28;83466;-94
2021/09/03 00:30:40;;;;;;;;;;;22.30;79.60;22.40;99799.00;;;;338521;28;95865;-93
2021/09/03 00:30:52;;;;;;;;;;;22.30;79.40;22.40;99807.00;;;;339182;28;83291;-94
2021/09/03 00:31:04;;;;;;;;;;;22.30;79.40;22.40;99801.00;;;;339818;28;96538;-93
2021/09/03 00:31:16;;;;;;;;;;;22.30;79.40;22.40;99802.00;;;;340527;28;83363;-93
2021/09/03 00:31:28;;;;;;;;;;;22.30;79.50;22.40;99800.00;;;;339735;28;95360;-93
2021/09/03 00:31:39;;;;;;;;;;;22.30;79.70;22.40;99796.00;;;;339226;28;83402;-93
2021/09/03 00:31:51;;;;;;;;;;;22.30;79.70;22.40;99801.00;;;;337088;28;96663;-93
2021/09/03 00:32:03;;;;;;;;;;;22.40;79.50;22.40;99805.00;;;;337773;28;82533;-93
2021/09/03 00:32:15;;;;;;;;;;;22.30;79.70;22.40;99799.00;;;;338441;28;95505;-92
2021/09/03 00:32:27;;;;;;;;;;;22.30;79.90;22.40;99804.00;;;;337830;28;83471;-93
2021/09/03 00:32:39;;;;;;;;;;;22.30;79.60;22.40;99802.00;;;;337638;28;94020;-93
2021/09/03 00:32:50;;;;;;;;;;;22.30;79.50;22.40;99804.00;;;;340371;28;82575;-93
2021/09/03 00:33:02;;;;;;;;;;;22.30;79.40;22.40;99804.00;;;;338441;28;94882;-93
2021/09/03 00:33:14;;;;;;;;;;;22.30;79.40;22.40;99805.00;;;;339130;28;83444;-93
2021/09/03 00:33:26;;;;;;;;;;;22.30;79.30;22.40;99799.00;;;;337119;28;95749;-93
2021/09/03 00:33:38;;;;;;;;;;;22.30;79.40;22.40;99799.00;;;;339214;28;83407;-93
2021/09/03 00:33:49;;;;;;;;;;;22.30;79.50;22.40;99800.00;;;;338465;28;96561;-93
2021/09/03 00:34:01;;;;;;;;;;;22.30;79.40;22.40;99800.00;;;;338002;28;83305;-93
2021/09/03 00:34:13;;;;;;;;;;;22.30;79.70;22.50;99800.00;;;;339686;28;96356;-93
2021/09/03 00:34:25;;;;;;;;;;;22.30;79.60;22.50;99801.00;;;;340506;28;83363;-92
2021/09/03 00:34:36;;;;;;;;;;;22.30;79.80;22.40;99800.00;;;;339767;28;94841;-93
2021/09/03 00:34:48;;;;;;;;;;;22.30;79.60;22.30;99804.00;;;;340342;28;83505;-93
2021/09/03 00:35:00;;;;;;;;;;;22.30;80.10;22.20;99796.00;;;;337044;28;95934;-92
2021/09/03 00:35:13;;;;;;;;;;;22.30;80.30;22.40;99807.00;;;;340560;28;83387;-93
2021/09/03 00:35:24;;;;;;;;;;;22.30;80.00;22.50;99805.00;;;;337031;28;95548;-92
2021/09/03 00:35:36;;;;;;;;;;;22.30;80.10;22.40;99801.00;;;;340373;28;82487;-92
2021/09/03 00:35:48;;;;;;;;;;;22.30;80.20;22.40;99804.00;;;;340811;28;96598;-94
2021/09/03 00:36:00;;;;;;;;;;;22.30;80.10;22.30;99802.00;;;;339165;28;83478;-94
2021/09/03 00:36:12;;;;;;;;;;;22.30;80.20;22.30;99803.00;;;;338409;28;96027;-93
2021/09/03 00:36:23;;;;;;;;;;;22.30;80.10;22.30;99805.00;;;;339133;28;83423;-92
2021/09/03 00:36:35;;;;;;;;;;;22.30;80.00;22.30;99803.00;;;;338394;28;95788;-93
2021/09/03 00:36:47;;;;;;;;;;;22.30;79.80;22.30;99808.00;;;;339171;28;83350;-94
2021/09/03 00:36:59;;;;;;;;;;;22.30;80.10;22.30;99804.00;;;;338470;28;96142;-93
2021/09/03 00:37:11;;;;;;;;;;;22.30;80.10;22.30;99806.00;;;;341602;28;83496;-92
2021/09/03 00:37:22;;;;;;;;;;;22.30;80.00;22.30;99805.00;;;;339629;28;94082;-93
2021/09/03 00:37:34;;;;;;;;;;;22.30;80.30;22.30;99803.00;;;;340458;28;83485;-94
2021/09/03 00:37:46;;;;;;;;;;;22.30;80.10;22.30;99806.00;;;;338490;28;96238;-93
2021/09/03 00:37:58;;;;;;;;;;;22.30;80.10;22.40;99809.00;;;;337835;28;83346;-93
2021/09/03 00:38:10;;;;;;;;;;;22.30;79.90;22.30;99805.00;;;;338348;28;95559;-93
2021/09/03 00:38:22;;;;;;;;;;;22.30;80.10;22.20;99806.00;;;;339292;28;83291;-93
2021/09/03 00:38:34;;;;;;;;;;;22.30;80.20;22.20;99800.00;;;;341158;28;94805;-93
2021/09/03 00:38:46;;;;;;;;;;;22.30;80.30;22.20;99799.00;;;;340529;28;83329;-93
2021/09/03 00:38:59;;;;;;;;;;;22.30;80.30;22.30;99806.00;;;;339770;28;95620;-93
2021/09/03 00:39:10;;;;;;;;;;;22.30;80.20;22.30;99808.00;;;;340059;28;82537;-93
2021/09/03 00:39:22;;;;;;;;;;;22.20;80.40;22.30;99806.00;;;;338427;28;95801;-93
2021/09/03 00:39:34;;;;;;;;;;;22.20;81.10;22.30;99804.00;;;;340427;28;83528;-92
2021/09/03 00:39:46;;;;;;;;;;;22.20;80.40;22.20;99811.00;;;;338399;28;95580;-93
2021/09/03 00:39:58;;;;;;;;;;;22.20;80.20;22.20;99799.00;;;;340547;28;83332;-94
2021/09/03 00:40:10;;;;;;;;;;;22.20;80.20;22.20;99806.00;;;;338254;28;96330;-92
2021/09/03 00:40:22;;;;;;;;;;;22.20;80.20;22.20;99803.00;;;;339266;28;83330;-93
2021/09/03 00:40:34;;;;;;;;;;;22.20;80.40;22.30;99803.00;;;;338469;28;95347;-93
2021/09/03 00:40:46;;;;;;;;;;;22.30;80.30;22.30;99797.00;;;;339136;28;83389;-94
2021/09/03 00:40:58;;;;;;;;;;;22.20;80.00;22.30;99799.00;;;;339702;28;97226;-94
2021/09/03 00:41:10;;;;;;;;;;;22.20;79.90;22.20;99805.00;;;;340650;28;82389;-94
2021/09/03 00:41:22;;;;;;;;;;;22.20;80.20;22.20;99803.00;;;;342505;28;92708;-93
2021/09/03 00:41:34;;;;;;;;;;;22.20;80.20;22.10;99803.00;;;;340247;28;82577;-92
2021/09/03 00:41:46;;;;;;;;;;;22.20;80.40;22.10;99802.00;;;;344651;28;95531;-93
2021/09/03 00:41:57;;;;;;;;;;;22.20;80.40;22.20;99806.00;;;;343462;28;82519;-94
2021/09/03 00:42:13;;;;;;;;;;;22.20;80.40;22.30;99798.00;;;;335729;28;97046;-93
2021/09/03 00:42:25;;;;;;;;;;;22.20;80.20;22.30;99801.00;;;;337918;28;83309;-93
2021/09/03 00:42:37;;;;;;;;;;;22.20;80.00;22.20;99804.00;;;;338376;28;96382;-93
2021/09/03 00:42:49;;;;;;;;;;;22.20;80.00;22.30;99804.00;;;;339103;28;83427;-94
2021/09/03 00:43:03;;;;;;;;;;;22.20;79.90;22.40;99799.00;;;;337056;28;95862;-93
2021/09/03 00:43:15;;;;;;;;;;;22.20;80.00;22.40;99800.00;;;;341787;28;83365;-91
2021/09/03 00:43:30;;;;;;;;;;;22.20;80.00;22.30;99808.00;;;;338378;28;96164;-93
2021/09/03 00:43:41;;;;;;;;;;;22.20;80.00;22.30;99796.00;;;;340511;28;83392;-93
2021/09/03 00:43:53;;;;;;;;;;;22.20;79.90;22.30;99801.00;;;;341099;28;96051;-94
2021/09/03 00:44:05;;;;;;;;;;;22.20;80.10;22.30;99802.00;;;;343338;28;83372;-93
2021/09/03 00:44:17;;;;;;;;;;;22.30;80.10;22.30;99805.00;;;;335823;28;96920;-93
2021/09/03 00:44:28;;;;;;;;;;;22.30;80.30;22.40;99804.00;;;;339222;28;83433;-94
2021/09/03 00:44:41;;;;;;;;;;;22.20;80.10;22.30;99805.00;;;;339814;28;95265;-93
2021/09/03 00:44:53;;;;;;;;;;;22.20;80.10;22.40;99807.00;;;;340390;28;82748;-93
2021/09/03 00:45:05;;;;;;;;;;;22.20;80.10;22.40;99806.00;;;;343991;28;97351;-93
2021/09/03 00:45:17;;;;;;;;;;;22.20;80.20;22.40;99802.00;;;;340458;28;83299;-93
2021/09/03 00:45:29;;;;;;;;;;;22.30;80.10;22.40;99809.00;;;;339678;28;96948;-93
2021/09/03 00:45:41;;;;;;;;;;;22.20;80.10;22.40;99802.00;;;;340616;28;83318;-93
2021/09/03 00:45:53;;;;;;;;;;;22.30;80.20;22.40;99803.00;;;;337213;28;96614;-93
2021/09/03 00:46:05;;;;;;;;;;;22.20;80.30;22.40;99803.00;;;;344819;28;83298;-93
2021/09/03 00:46:17;;;;;;;;;;;22.20;80.40;22.40;99806.00;;;;342578;28;96952;-94
2021/09/03 00:46:29;;;;;;;;;;;22.30;80.10;22.50;99807.00;;;;337809;28;83483;-93
2021/09/03 00:46:41;;;;;;;;;;;22.30;80.20;22.60;99807.00;;;;335779;28;95218;-93
2021/09/03 00:46:52;;;;;;;;;;;22.30;80.40;22.50;99809.00;;;;336440;28;83523;-93
2021/09/03 00:47:04;;;;;;;;;;;22.30;80.20;22.60;99808.00;;;;336941;28;97322;-93
2021/09/03 00:47:16;;;;;;;;;;;22.30;80.20;22.60;99812.00;;;;339255;28;82506;-94
2021/09/03 00:47:28;;;;;;;;;;;22.30;80.00;22.50;99811.00;;;;338336;28;95242;-94
2021/09/03 00:47:39;;;;;;;;;;;22.30;80.20;22.50;99807.00;;;;343367;28;83598;-94
2021/09/03 00:47:51;;;;;;;;;;;22.30;80.00;22.50;99808.00;;;;345407;28;96494;-94
2021/09/03 00:48:03;;;;;;;;;;;22.30;80.10;22.40;99808.00;;;;344683;28;82718;-93
2021/09/03 00:48:15;;;;;;;;;;;22.30;80.40;22.20;99804.00;;;;345371;28;96843;-93
2021/09/03 00:48:27;;;;;;;;;;;22.30;80.60;22.20;99809.00;;;;339161;28;83457;-94
2021/09/03 00:48:39;;;;;;;;;;;22.30;80.50;22.10;99809.00;;;;337170;28;95056;-94
2021/09/03 00:48:50;;;;;;;;;;;22.30;80.50;22.30;99818.00;;;;337835;28;83485;-93
2021/09/03 00:49:02;;;;;;;;;;;22.30;80.40;22.30;99818.00;;;;338408;28;97084;-93
2021/09/03 00:49:14;;;;;;;;;;;22.30;80.30;22.20;99806.00;;;;339210;28;82568;-93
2021/09/03 00:49:26;;;;;;;;;;;22.30;80.40;22.20;99807.00;;;;337069;28;95406;-94
2021/09/03 00:49:38;;;;;;;;;;;22.30;80.60;22.20;99805.00;;;;340445;28;83477;-93
2021/09/03 00:49:49;;;;;;;;;;;22.30;80.50;22.20;99813.00;;;;345403;28;97063;-94
2021/09/03 00:50:01;;;;;;;;;;;22.30;80.50;22.30;99811.00;;;;344770;28;82519;-93
2021/09/03 00:50:13;;;;;;;;;;;22.20;80.80;22.30;99806.00;;;;338355;28;96559;-93
2021/09/03 00:50:25;;;;;;;;;;;22.30;80.30;22.30;99812.00;;;;336477;28;84052;-93
2021/09/03 00:50:36;;;;;;;;;;;22.20;80.20;22.30;99806.00;;;;337093;28;95773;-93
2021/09/03 00:50:49;;;;;;;;;;;22.30;80.30;22.40;99802.00;;;;336487;28;83160;-93
2021/09/03 00:51:02;;;;;;;;;;;22.20;80.10;22.40;99808.00;;;;337089;28;95762;-94
2021/09/03 00:51:14;;;;;;;;;;;22.30;80.20;22.30;99810.00;;;;341863;28;83313;-93
2021/09/03 00:51:26;;;;;;;;;;;22.20;80.30;22.40;99812.00;;;;338203;28;95253;-93
2021/09/03 00:51:38;;;;;;;;;;;22.30;80.40;22.50;99807.00;;;;337838;28;82485;-94
2021/09/03 00:51:50;;;;;;;;;;;22.30;80.50;22.40;99803.00;;;;338300;28;95375;-93
2021/09/03 00:52:03;;;;;;;;;;;22.20;80.40;22.40;99808.00;;;;343379;28;83433;-94
2021/09/03 00:52:15;;;;;;;;;;;22.20;80.70;22.30;99813.00;;;;345324;28;96445;-93
2021/09/03 00:52:27;;;;;;;;;;;22.30;80.60;22.30;99807.00;;;;339297;28;83505;-93
2021/09/03 00:52:39;;;;;;;;;;;22.20;80.50;22.20;99805.00;;;;345432;28;95166;-94
2021/09/03 00:52:51;;;;;;;;;;;22.20;80.50;22.30;99809.00;;;;347596;28;82551;-94
2021/09/03 00:53:05;;;;;;;;;;;22.20;80.30;22.40;99797.00;;;;339657;28;96679;-93
2021/09/03 00:53:17;;;;;;;;;;;22.30;80.40;22.40;99808.00;;;;340610;28;82344;-93
2021/09/03 00:53:28;;;;;;;;;;;22.20;80.80;22.40;99807.00;;;;338354;28;95881;-94
2021/09/03 00:53:40;;;;;;;;;;;22.20;80.70;22.40;99808.00;;;;339060;28;83598;-93
2021/09/03 00:53:52;;;;;;;;;;;22.20;80.80;22.30;99811.00;;;;338126;28;95369;-94
2021/09/03 00:54:04;;;;;;;;;;;22.20;80.70;22.30;99818.00;;;;336580;28;83404;-92
2021/09/03 00:54:15;;;;;;;;;;;22.20;80.50;22.30;99806.00;;;;338484;28;96353;-94
2021/09/03 00:54:27;;;;;;;;;;;22.20;80.70;22.30;99811.00;;;;339245;28;83626;-93
2021/09/03 00:54:39;;;;;;;;;;;22.20;80.60;22.30;99813.00;;;;338457;28;95869;-92
2021/09/03 00:54:51;;;;;;;;;;;22.20;80.60;22.20;99810.00;;;;339288;28;82500;-94
2021/09/03 00:55:03;;;;;;;;;;;22.20;80.70;22.30;99817.00;;;;338414;28;93831;-94
2021/09/03 00:55:16;;;;;;;;;;;22.20;80.70;22.30;99820.00;;;;339310;28;82522;-93
2021/09/03 00:55:27;;;;;;;;;;;22.20;80.80;22.20;99817.00;;;;339600;28;97350;-93
2021/09/03 00:55:39;;;;;;;;;;;22.20;80.90;22.30;99810.00;;;;339176;28;83384;-94
2021/09/03 00:55:51;;;;;;;;;;;22.20;80.90;22.30;99817.00;;;;338411;28;95529;-93
2021/09/03 00:56:03;;;;;;;;;;;22.20;81.20;22.20;99812.00;;;;339035;28;83438;-93
2021/09/03 00:56:15;;;;;;;;;;;22.20;81.10;22.30;99804.00;;;;338394;28;96550;-94
2021/09/03 00:56:27;;;;;;;;;;;22.20;80.80;22.20;99807.00;;;;337849;28;83404;-93
2021/09/03 00:56:39;;;;;;;;;;;22.20;81.10;22.20;99809.00;;;;336643;28;96266;-93
2021/09/03 00:56:50;;;;;;;;;;;22.20;81.00;22.20;99810.00;;;;338783;28;82405;-94
2021/09/03 00:57:03;;;;;;;;;;;22.20;80.80;22.10;99812.00;;;;341035;28;96677;-93
2021/09/03 00:57:14;;;;;;;;;;;22.20;80.90;22.10;99817.00;;;;339208;28;83346;-94
2021/09/03 00:57:26;;;;;;;;;;;22.10;80.80;22.10;99809.00;;;;338257;28;96689;-94
2021/09/03 00:57:38;;;;;;;;;;;22.10;80.90;22.10;99810.00;;;;337814;28;83209;-93
2021/09/03 00:57:50;;;;;;;;;;;22.10;81.00;22.10;99801.00;;;;342643;28;95608;-94
2021/09/03 00:58:02;;;;;;;;;;;22.10;81.00;22.10;99810.00;;;;346115;28;83338;-93
2021/09/03 00:58:13;;;;;;;;;;;22.10;81.00;22.10;99804.00;;;;335866;28;93778;-93
2021/09/03 00:58:25;;;;;;;;;;;22.10;81.00;22.10;99810.00;;;;340462;28;83404;-94
2021/09/03 00:58:37;;;;;;;;;;;22.10;81.10;22.20;99810.00;;;;339901;28;92029;-93
2021/09/03 00:58:49;;;;;;;;;;;22.10;80.90;22.30;99810.00;;;;344683;28;82465;-93
2021/09/03 00:59:01;;;;;;;;;;;22.10;80.80;22.20;99804.00;;;;345322;28;97629;-93
2021/09/03 00:59:13;;;;;;;;;;;22.10;81.00;22.20;99798.00;;;;344646;28;83465;-93